Time;durP1;ratioP1;P1;durP2;ratioP2;P2;SDS_P1;SDS_P2;PMS_P1;PMS_P2;Temp;Humidity;BMP_temperature;BMP_pressure;BME280_temperature;BME280_humidity;BME280_pressure;Samples;Min_cycle;Max_cycle;Signal;HPM_P1;HPM_P2
2021/10/25 00:00:27;;;;;;;0.70;0.70;;;;;;;25.99;22.52;94723.81;4950375;28;20019;-76
2021/10/25 00:02:53;;;;;;;0.80;0.80;;;;;;;25.97;22.04;94710.81;4960725;28;20034;-76
2021/10/25 00:05:19;;;;;;;0.60;0.60;;;;;;;25.96;22.51;94706.53;4937120;28;20054;-76
2021/10/25 00:07:44;;;;;;;0.80;0.80;;;;;;;25.97;22.36;94715.31;4934715;28;20031;-76
2021/10/25 00:10:10;;;;;;;0.70;0.70;;;;;;;25.97;22.12;94721.47;4941196;28;20035;-76
2021/10/25 00:12:39;;;;;;;0.52;0.52;;;;;;;25.97;22.52;94721.47;4952704;28;20031;-76
2021/10/25 00:15:08;;;;;;;0.70;0.65;;;;;;;26.01;22.58;94727.00;4955299;28;20058;-77
2021/10/25 00:17:37;;;;;;;0.70;0.70;;;;;;;26.00;22.59;94722.75;4938875;29;20066;-76
2021/10/25 00:20:04;;;;;;;0.80;0.80;;;;;;;26.00;21.97;94723.53;4970128;28;20027;-76
2021/10/25 00:22:32;;;;;;;0.65;0.63;;;;;;;25.99;22.27;94721.16;4958935;28;20063;-77
2021/10/25 00:24:57;;;;;;;0.80;0.80;;;;;;;26.01;22.43;94719.00;4945173;28;20027;-77
2021/10/25 00:27:23;;;;;;;0.65;0.65;;;;;;;26.00;22.20;94712.09;4941214;28;20035;-76
2021/10/25 00:29:49;;;;;;;1.00;0.90;;;;;;;25.99;22.07;94719.31;4962722;28;20036;-81
2021/10/25 00:32:16;;;;;;;1.27;0.90;;;;;;;26.00;22.16;94720.88;4951490;28;20027;-80
2021/10/25 00:34:42;;;;;;;0.70;0.70;;;;;;;26.00;22.45;94723.53;4962963;28;20037;-80
2021/10/25 00:37:07;;;;;;;0.70;0.70;;;;;;;26.01;22.52;94719.00;4937101;29;20032;-80
2021/10/25 00:39:33;;;;;;;1.02;0.85;;;;;;;25.99;22.44;94713.97;4954506;28;20059;-80
2021/10/25 00:41:59;;;;;;;0.73;0.60;;;;;;;25.99;22.47;94708.66;4951775;28;20062;-81
2021/10/25 00:44:26;;;;;;;0.60;0.60;;;;;;;26.03;22.33;94715.00;4957605;28;20031;-81
2021/10/25 00:46:51;;;;;;;0.60;0.60;;;;;;;26.01;22.17;94708.34;4953345;28;20038;-80
2021/10/25 00:49:17;;;;;;;0.70;0.70;;;;;;;26.02;22.13;94705.38;4968282;28;20026;-80
2021/10/25 00:51:45;;;;;;;0.70;0.70;;;;;;;26.04;22.33;94707.78;4940637;28;20031;-80
2021/10/25 00:54:10;;;;;;;0.80;0.80;;;;;;;26.02;22.30;94696.63;4957950;28;20032;-80
2021/10/25 00:56:36;;;;;;;0.70;0.70;;;;;;;26.02;21.96;94702.72;4955814;28;20031;-81
2021/10/25 00:59:01;;;;;;;0.70;0.70;;;;;;;26.04;22.56;94705.09;4954108;28;20023;-81
2021/10/25 01:01:27;;;;;;;0.90;0.90;;;;;;;26.04;22.30;94711.22;4922197;28;20042;-80
2021/10/25 01:03:55;;;;;;;0.70;0.68;;;;;;;26.02;22.15;94702.72;4953121;28;20027;-80
2021/10/25 01:06:20;;;;;;;0.88;0.88;;;;;;;26.01;22.28;94705.66;4938464;28;20047;-81
2021/10/25 01:08:48;;;;;;;0.90;0.70;;;;;;;26.02;21.92;94701.94;4945549;28;20034;-80
2021/10/25 01:11:13;;;;;;;0.75;0.75;;;;;;;26.03;21.98;94708.88;4954635;28;20050;-81
2021/10/25 01:13:39;;;;;;;0.80;0.80;;;;;;;26.03;22.02;94708.88;4967999;28;20038;-81
2021/10/25 01:16:07;;;;;;;0.70;0.70;;;;;;;26.01;21.98;94711.81;4955684;28;20365;-80
2021/10/25 01:18:38;;;;;;;0.70;0.70;;;;;;;26.06;22.34;94703.72;4947002;28;20023;-81
2021/10/25 01:21:06;;;;;;;0.90;0.75;;;;;;;25.99;22.42;94698.00;4966167;28;20027;-80
2021/10/25 01:23:32;;;;;;;1.17;0.80;;;;;;;26.01;22.25;94705.66;4915888;29;20043;-80
2021/10/25 01:26:00;;;;;;;0.70;0.70;;;;;;;26.00;21.89;94704.88;4952903;28;20023;-81
2021/10/25 01:28:25;;;;;;;0.60;0.60;;;;;;;26.00;22.27;94699.56;4944865;28;20027;-81
2021/10/25 01:30:50;;;;;;;0.57;0.57;;;;;;;26.00;22.25;94704.88;4945085;28;20337;-80
2021/10/25 01:33:18;;;;;;;1.20;0.77;;;;;;;26.00;22.40;94698.78;4932931;28;20043;-80
2021/10/25 01:35:46;;;;;;;0.90;0.77;;;;;;;25.99;22.01;94702.50;4940782;29;20042;-81
2021/10/25 01:38:12;;;;;;;0.82;0.70;;;;;;;26.01;22.26;94695.81;4941021;29;20027;-80
2021/10/25 01:40:40;;;;;;;0.60;0.60;;;;;;;26.01;22.03;94692.34;4954355;28;20050;-81
2021/10/25 01:43:05;;;;;;;0.68;0.68;;;;;;;26.02;22.20;94697.41;4962505;28;20093;-80
2021/10/25 01:45:31;;;;;;;0.90;0.90;;;;;;;25.99;22.08;94697.19;4953042;28;20031;-81
2021/10/25 01:47:56;;;;;;;0.70;0.70;;;;;;;25.99;22.28;94698.00;4938816;28;20034;-80
2021/10/25 01:50:26;;;;;;;0.70;0.65;;;;;;;26.03;22.34;94698.22;4951431;28;20031;-81
2021/10/25 01:52:51;;;;;;;0.80;0.80;;;;;;;26.02;22.51;94691.28;4936450;28;20063;-80
2021/10/25 01:55:17;;;;;;;0.80;0.80;;;;;;;25.99;22.45;94678.53;4937392;29;20036;-80
2021/10/25 01:57:42;;;;;;;0.80;0.80;;;;;;;25.99;22.43;94679.34;4950521;28;20042;-81
2021/10/25 02:00:08;;;;;;;0.63;0.63;;;;;;;26.01;22.23;94684.34;4933924;28;20046;-81
2021/10/25 02:02:34;;;;;;;1.27;0.70;;;;;;;26.02;22.36;94681.41;4921378;28;20046;-81
2021/10/25 02:05:02;;;;;;;0.90;0.73;;;;;;;26.00;22.28;94683.56;4936882;28;20030;-80
2021/10/25 02:07:30;;;;;;;0.73;0.70;;;;;;;26.00;22.43;94680.13;4937698;28;20105;-80
2021/10/25 02:09:55;;;;;;;0.65;0.65;;;;;;;26.00;22.55;94682.78;4940167;28;20037;-80
2021/10/25 02:12:21;;;;;;;0.70;0.70;;;;;;;26.00;22.40;94677.47;4936090;29;20050;-80
2021/10/25 02:14:47;;;;;;;0.98;0.90;;;;;;;26.01;22.45;94676.38;4946942;28;20030;-80
2021/10/25 02:17:12;;;;;;;0.73;0.65;;;;;;;26.00;22.61;94682.78;4938423;28;20027;-81
2021/10/25 02:19:39;;;;;;;0.82;0.82;;;;;;;26.02;22.37;94680.63;4953585;28;20039;-80
2021/10/25 02:22:05;;;;;;;0.70;0.70;;;;;;;25.99;22.70;94676.66;4968360;28;20030;-80
2021/10/25 02:24:30;;;;;;;0.70;0.70;;;;;;;26.02;22.62;94677.97;4934077;28;20034;-80
2021/10/25 02:26:56;;;;;;;0.70;0.70;;;;;;;26.02;22.20;94676.09;4950651;28;20034;-80
2021/10/25 02:29:21;;;;;;;0.70;0.70;;;;;;;26.02;22.29;94675.28;4959160;28;20050;-80
2021/10/25 02:31:47;;;;;;;0.70;0.70;;;;;;;25.99;22.33;94670.53;4956906;28;20035;-80
2021/10/25 02:34:12;;;;;;;0.85;0.85;;;;;;;26.03;22.44;94672.34;4951534;28;20050;-80
2021/10/25 02:36:38;;;;;;;0.80;0.80;;;;;;;26.04;22.35;94667.81;4951775;28;20027;-81
2021/10/25 02:39:06;;;;;;;0.80;0.80;;;;;;;26.03;22.41;94671.56;4939109;28;20043;-80
2021/10/25 02:41:31;;;;;;;0.77;0.77;;;;;;;26.03;22.42;94671.56;4941647;29;20027;-80
2021/10/25 02:43:57;;;;;;;0.88;0.88;;;;;;;26.03;22.57;94680.34;4935731;28;20043;-81
2021/10/25 02:46:23;;;;;;;0.80;0.80;;;;;;;26.03;22.54;94663.56;4938621;29;20043;-80
2021/10/25 02:48:50;;;;;;;0.85;0.85;;;;;;;26.01;22.58;94653.19;4949569;28;20030;-80
2021/10/25 02:51:16;;;;;;;1.08;0.70;;;;;;;26.02;22.33;94662.75;4948031;28;20035;-81
2021/10/25 02:53:42;;;;;;;0.90;0.90;;;;;;;26.05;22.73;94653.41;4936015;28;20110;-81
2021/10/25 02:56:07;;;;;;;0.82;0.82;;;;;;;26.03;22.62;94656.34;4948048;28;20044;-80
2021/10/25 02:58:32;;;;;;;0.70;0.70;;;;;;;26.05;22.48;94650.75;4948572;28;20039;-81
2021/10/25 03:00:59;;;;;;;6.72;1.13;;;;;;;26.05;22.69;94653.41;4941830;28;20033;-81
2021/10/25 03:03:24;;;;;;;0.95;0.95;;;;;;;26.04;22.49;94651.81;4953121;28;20098;-80
2021/10/25 03:05:49;;;;;;;1.60;1.00;;;;;;;26.05;22.72;94659.53;4943415;28;20035;-81
2021/10/25 03:08:15;;;;;;;0.60;0.60;;;;;;;26.07;22.49;94664.56;4941476;28;20066;-80
2021/10/25 03:10:40;;;;;;;1.00;0.90;;;;;;;26.06;22.36;94655.75;4954189;28;20043;-81
2021/10/25 03:13:08;;;;;;;0.85;0.85;;;;;;;26.07;22.71;94659.25;4941048;28;20034;-81
2021/10/25 03:15:34;;;;;;;0.93;0.90;;;;;;;26.07;22.44;94670.69;4969264;28;20110;-79
2021/10/25 03:18:02;;;;;;;1.02;1.02;;;;;;;26.04;22.43;94660.59;4972657;28;20039;-80
2021/10/25 03:20:27;;;;;;;2.10;1.10;;;;;;;26.05;22.50;94670.19;4917677;28;20038;-81
2021/10/25 03:22:53;;;;;;;1.00;1.00;;;;;;;26.06;22.09;94663.75;4955104;28;20082;-80
2021/10/25 03:25:21;;;;;;;1.02;0.85;;;;;;;26.07;22.32;94656.56;4937751;28;20039;-80
2021/10/25 03:27:48;;;;;;;0.90;0.90;;;;;;;26.06;22.45;94654.97;4958441;28;20122;-81
2021/10/25 03:30:14;;;;;;;1.55;1.10;;;;;;;26.03;22.49;94656.34;4941169;28;20035;-81
2021/10/25 03:32:44;;;;;;;1.20;1.10;;;;;;;26.12;22.19;94667.97;4946088;28;20121;-81
2021/10/25 03:35:12;;;;;;;;;;;;;;;26.26;22.53;94668.00;4973404;28;20125;-80
2021/10/25 03:37:39;;;;;;;2.00;1.20;;;;;;;26.11;22.35;94658.34;4974258;28;19918;-80
2021/10/25 03:40:05;;;;;;;1.45;1.20;;;;;;;26.09;22.43;94665.84;4943165;28;20038;-81
2021/10/25 03:42:37;;;;;;;1.40;1.30;;;;;;;26.07;22.45;94661.91;4946753;28;20033;-79
2021/10/25 03:47:38;;;;;;;2.03;1.83;;;;;;;26.06;22.82;94673.63;4961143;28;20039;-80
2021/10/25 03:50:17;;;;;;;1.20;1.10;;;;;;;26.04;22.99;94667.81;4940315;28;20057;-81
2021/10/25 03:52:57;;;;;;;1.30;1.20;;;;;;;26.00;22.91;94662.25;4946298;28;20082;-80
2021/10/25 04:03:21;;;;;;;1.27;1.17;;;;;;;26.04;23.07;94673.13;4967811;28;20027;-80
2021/10/25 04:27:55;;;;;;;1.52;1.42;;;;;;;26.02;22.99;94656.66;4945575;28;20100;-81
2021/10/25 04:30:20;;;;;;;1.33;1.23;;;;;;;26.02;23.19;94664.63;4941957;29;20035;-81
2021/10/25 04:32:48;;;;;;;1.40;1.30;;;;;;;26.01;23.13;94653.19;4947238;28;20028;-80
2021/10/25 04:35:13;;;;;;;1.40;1.30;;;;;;;26.02;22.74;94654.75;4931099;29;20165;-81
2021/10/25 04:37:39;;;;;;;1.55;1.45;;;;;;;26.04;23.09;94671.25;4928840;29;20078;-80
2021/10/25 04:40:05;;;;;;;1.52;1.42;;;;;;;26.04;22.72;94668.59;4939255;28;20047;-80
2021/10/25 04:42:32;;;;;;;1.33;1.23;;;;;;;26.03;23.11;94667.00;4931366;29;20083;-80
2021/10/25 04:44:58;;;;;;;1.40;1.30;;;;;;;26.04;22.80;94654.47;4935013;29;20067;-81
2021/10/25 04:47:23;;;;;;;1.90;1.13;;;;;;;26.05;23.00;94648.06;4929777;28;20069;-80
2021/10/25 04:49:49;;;;;;;1.27;1.13;;;;;;;26.04;22.69;94655.25;4915166;29;20046;-81
2021/10/25 04:52:14;;;;;;;1.30;1.20;;;;;;;26.05;23.03;94648.88;4918902;29;20027;-81
2021/10/25 04:54:42;;;;;;;1.25;1.10;;;;;;;26.05;23.05;94646.19;4938394;28;20043;-80
2021/10/25 04:57:07;;;;;;;1.30;1.20;;;;;;;26.07;22.85;94646.69;4971728;28;20041;-81
2021/10/25 04:59:32;;;;;;;1.40;1.30;;;;;;;26.07;22.69;94646.69;4946201;28;20023;-81
2021/10/25 05:02:01;;;;;;;1.20;1.10;;;;;;;26.13;22.69;94642.09;4953713;28;20069;-81
2021/10/25 05:04:28;;;;;;;1.20;1.10;;;;;;;26.09;23.11;94654.41;4935498;28;20114;-81
2021/10/25 05:06:58;;;;;;;1.30;1.20;;;;;;;26.15;22.72;94661.25;4958704;28;20049;-80
2021/10/25 05:09:25;;;;;;;;;;;;;;;26.30;22.89;94655.69;4934674;28;20063;-80
2021/10/25 05:11:51;;;;;;;1.20;1.10;;;;;;;26.16;22.39;94652.19;4965393;28;20240;-81
2021/10/25 05:14:16;;;;;;;1.38;1.27;;;;;;;26.11;22.47;94653.03;4931816;29;20035;-80
2021/10/25 05:16:43;;;;;;;1.30;1.20;;;;;;;26.10;22.58;94643.47;4937422;28;20027;-80
2021/10/25 05:19:09;;;;;;;1.38;1.27;;;;;;;26.11;22.57;94642.38;4934384;28;20031;-80
2021/10/25 05:21:35;;;;;;;2.15;1.27;;;;;;;26.08;22.37;94628.81;4946697;28;20023;-80
2021/10/25 05:24:00;;;;;;;1.17;1.08;;;;;;;26.09;22.38;94631.22;4948189;28;20035;-80
2021/10/25 05:26:29;;;;;;;1.40;1.20;;;;;;;26.08;22.18;94624.31;4961474;28;20046;-80
2021/10/25 05:28:56;;;;;;;1.27;1.17;;;;;;;26.07;22.54;94625.38;4961151;28;20041;-80
2021/10/25 05:31:25;;;;;;;1.17;1.08;;;;;;;26.06;22.46;94639.78;4954560;28;20038;-81
2021/10/25 05:33:54;;;;;;;1.08;1.02;;;;;;;26.07;22.40;94644.03;4950510;28;20038;-79
2021/10/25 05:36:22;;;;;;;1.20;1.10;;;;;;;26.05;22.07;94640.09;4967903;28;20071;-80
2021/10/25 05:38:47;;;;;;;1.02;0.93;;;;;;;26.07;22.04;94635.25;4950831;28;20058;-81
2021/10/25 05:41:18;;;;;;;1.27;1.17;;;;;;;26.00;22.11;94618.84;4950756;28;20066;-81
2021/10/25 05:43:48;;;;;;;1.75;1.20;;;;;;;26.10;21.96;94632.00;4922141;28;20038;-81
2021/10/25 05:46:17;;;;;;;1.20;1.10;;;;;;;26.06;21.96;94642.44;4960462;28;20047;-81
2021/10/25 05:48:43;;;;;;;1.10;1.00;;;;;;;26.06;22.36;94641.66;4953891;28;20182;-80
2021/10/25 05:51:12;;;;;;;1.10;1.00;;;;;;;26.05;21.95;94643.53;4952476;28;20047;-79
2021/10/25 05:53:37;;;;;;;1.00;1.00;;;;;;;26.04;22.35;94639.28;4948702;28;20062;-80
2021/10/25 05:56:03;;;;;;;1.30;1.20;;;;;;;26.03;22.19;94639.59;4966845;28;20074;-82
2021/10/25 05:58:30;;;;;;;1.17;1.08;;;;;;;26.06;21.97;94639.00;4948906;28;20281;-81
2021/10/25 06:00:58;;;;;;;1.05;1.00;;;;;;;26.05;22.30;94643.53;4953505;28;20042;-81
2021/10/25 06:03:26;;;;;;;1.10;1.00;;;;;;;26.04;21.98;94636.59;4936600;28;20043;-81
2021/10/25 06:05:51;;;;;;;1.20;1.10;;;;;;;26.06;22.25;94636.31;4964828;28;20034;-81
2021/10/25 06:08:18;;;;;;;1.13;1.00;;;;;;;26.04;21.78;94625.16;4953160;28;20035;-81
2021/10/25 06:10:43;;;;;;;1.20;1.10;;;;;;;26.04;22.19;94627.81;4932259;28;20039;-81
2021/10/25 06:13:23;;;;;;;1.15;1.05;;;;;;;26.05;22.17;94630.22;4950245;28;20063;-81
2021/10/25 06:16:03;;;;;;;1.15;1.05;;;;;;;26.06;21.83;94639.78;4945415;28;20039;-81
2021/10/25 06:18:31;;;;;;;1.10;1.00;;;;;;;26.05;22.04;94638.22;4957554;28;20058;-81
2021/10/25 06:20:56;;;;;;;1.55;1.23;;;;;;;26.06;22.11;94644.31;4935631;28;20054;-81
2021/10/25 06:23:22;;;;;;;1.23;1.13;;;;;;;26.04;21.96;94641.94;4951597;28;20035;-81
2021/10/25 06:25:53;;;;;;;1.13;1.00;;;;;;;26.04;21.76;94641.16;4933530;28;20035;-81
2021/10/25 06:28:23;;;;;;;1.17;1.08;;;;;;;26.05;22.12;94643.53;4939468;28;20035;-81
2021/10/25 06:30:54;;;;;;;;;;;;;;;26.25;21.97;94647.75;4964335;28;20125;-81
2021/10/25 06:33:24;;;;;;;0.90;0.90;;;;;;;26.11;21.85;94655.69;4952260;28;19915;-81
2021/10/25 06:38:52;;;;;;;1.00;0.95;;;;;;;26.08;22.12;94653.63;4917717;29;20037;-81
2021/10/25 06:41:19;;;;;;;1.52;1.15;;;;;;;26.06;22.07;94649.66;4918671;29;20027;-81
2021/10/25 06:43:44;;;;;;;1.65;1.30;;;;;;;26.01;22.07;94653.19;4917071;29;20052;-81
2021/10/25 06:46:11;;;;;;;1.13;1.05;;;;;;;26.06;22.05;94668.31;4902240;29;20079;-81
2021/10/25 06:48:36;;;;;;;1.08;0.98;;;;;;;26.04;21.97;94655.25;4921435;29;20126;-81
2021/10/25 06:51:01;;;;;;;0.95;0.90;;;;;;;26.05;22.18;94653.41;4916947;29;20036;-79
2021/10/25 06:53:28;;;;;;;1.08;1.00;;;;;;;26.03;21.99;94650.25;4909605;29;20039;-81
2021/10/25 06:55:54;;;;;;;1.30;1.20;;;;;;;26.03;22.18;94653.69;4897152;29;20048;-81
2021/10/25 06:58:21;;;;;;;1.20;1.10;;;;;;;26.05;22.22;94658.75;4897565;29;20028;-81
2021/10/25 07:00:46;;;;;;;1.20;1.10;;;;;;;26.05;22.03;94662.19;4919311;29;20079;-81
2021/10/25 07:03:12;;;;;;;1.20;1.10;;;;;;;26.06;22.30;94662.97;4914298;29;20052;-80
2021/10/25 07:05:37;;;;;;;1.10;1.00;;;;;;;26.05;21.86;94666.72;4915382;29;20043;-81
2021/10/25 07:08:04;;;;;;;1.30;1.20;;;;;;;26.04;22.15;94659.81;4913979;29;20071;-81
2021/10/25 07:10:29;;;;;;;1.77;1.00;;;;;;;26.05;22.02;94666.72;4915940;29;20118;-81
2021/10/25 07:12:57;;;;;;;1.20;1.02;;;;;;;26.11;22.33;94671.69;4899353;29;20106;-81
2021/10/25 07:15:24;;;;;;;1.05;1.00;;;;;;;26.02;22.23;94669.97;4932417;28;20043;-81
2021/10/25 07:17:59;;;;;;;1.20;1.10;;;;;;;26.05;21.91;94678.19;4956598;28;20031;-81
2021/10/25 08:06:52;;;;;;;1.10;1.00;;;;;;;26.07;22.43;94665.34;4968207;28;20031;-81
2021/10/25 08:12:18;;;;;;;1.13;1.02;;;;;;;26.10;22.64;94675.44;4953371;28;20126;-81
2021/10/25 08:14:51;;;;;;;1.42;1.10;;;;;;;26.10;22.63;94667.47;4919539;28;20147;-81
2021/10/25 08:17:24;;;;;;;0.90;0.90;;;;;;;26.10;22.83;94658.66;4935420;28;20031;-81
2021/10/25 08:19:50;;;;;;;1.10;1.00;;;;;;;26.12;22.34;94669.81;4951207;28;20109;-81
2021/10/25 08:22:16;;;;;;;1.15;1.02;;;;;;;26.11;23.10;94677.03;4932941;28;20047;-81
2021/10/25 08:24:49;;;;;;;1.40;1.30;;;;;;;26.19;22.59;94670.25;4933340;28;20073;-81
2021/10/25 08:27:16;;;;;;;1.27;1.17;;;;;;;26.10;23.04;94662.13;4931728;28;20035;-81
2021/10/25 08:29:45;;;;;;;1.30;1.20;;;;;;;26.13;22.79;94658.88;4950798;28;20051;-81
2021/10/25 08:42:15;;;;;;;1.23;1.05;;;;;;;26.13;22.95;94650.88;4951065;28;20390;-81
2021/10/25 08:44:44;;;;;;;1.10;1.00;;;;;;;26.12;23.12;94657.28;4943339;28;20030;-81
2021/10/25 08:47:10;;;;;;;1.45;1.20;;;;;;;26.11;23.17;94652.25;4954660;28;20055;-80
2021/10/25 08:49:36;;;;;;;1.33;1.17;;;;;;;26.11;23.24;94647.69;4946052;28;20039;-81
2021/10/25 08:52:02;;;;;;;1.20;1.10;;;;;;;26.12;23.30;94651.97;4966646;28;20035;-81
2021/10/25 08:54:31;;;;;;;1.33;1.23;;;;;;;26.12;23.43;94643.97;4952695;28;20122;-81
2021/10/25 08:57:01;;;;;;;1.73;1.27;;;;;;;26.19;23.21;94642.81;4942052;28;20023;-81
2021/10/25 08:59:28;;;;;;;1.30;1.20;;;;;;;26.13;23.03;94639.41;4940309;28;20050;-81
2021/10/25 09:02:05;;;;;;;1.15;1.05;;;;;;;26.20;23.33;94639.03;4954615;28;20039;-81
2021/10/25 09:04:31;;;;;;;1.20;1.10;;;;;;;26.12;23.25;94638.63;4948288;28;20122;-80
2021/10/25 09:06:59;;;;;;;1.40;1.30;;;;;;;26.13;23.21;94629.53;4956110;28;20033;-80
2021/10/25 09:09:25;;;;;;;1.65;1.35;;;;;;;26.12;23.17;94635.16;4956521;28;20027;-81
2021/10/25 09:12:08;;;;;;;1.48;1.38;;;;;;;26.20;23.13;94628.38;4954996;28;20030;-80
2021/10/25 09:14:36;;;;;;;1.70;1.60;;;;;;;26.12;23.42;94625.31;4967159;28;20106;-81
2021/10/25 09:17:04;;;;;;;1.67;1.58;;;;;;;26.10;23.42;94619.47;4953146;28;20038;-79
2021/10/25 09:19:33;;;;;;;1.75;1.60;;;;;;;26.21;23.15;94624.66;4965141;28;20031;-81
2021/10/25 09:22:10;;;;;;;1.80;1.70;;;;;;;26.23;23.06;94617.16;4952413;28;20031;-80
2021/10/25 09:24:38;;;;;;;3.53;2.00;;;;;;;26.12;23.51;94616.50;4950450;28;20052;-80
2021/10/25 09:27:06;;;;;;;1.88;1.67;;;;;;;26.14;23.47;94620.47;4966009;28;23583;-81
2021/10/25 09:29:33;;;;;;;2.00;1.67;;;;;;;26.14;23.64;94625.81;4952591;28;20035;-80
2021/10/25 09:32:06;;;;;;;2.08;1.80;;;;;;;26.14;23.38;94623.16;4954115;28;20027;-80
2021/10/25 09:34:37;;;;;;;1.90;1.70;;;;;;;26.14;23.23;94628.47;4935643;28;20031;-81
2021/10/25 09:37:08;;;;;;;2.45;1.70;;;;;;;26.23;23.14;94623.25;4953196;28;20019;-80
2021/10/25 09:39:56;;;;;;;1.83;1.70;;;;;;;26.17;23.59;94632.44;4952638;28;20029;-80
2021/10/25 09:45:24;;;;;;;2.17;1.98;;;;;;;26.29;23.36;94632.78;4949951;28;20082;-81
2021/10/25 09:50:41;;;;;;;2.53;1.95;;;;;;;26.27;23.35;94634.13;4961640;28;20047;-81
2021/10/25 09:53:08;;;;;;;2.10;1.80;;;;;;;26.21;23.78;94632.63;4949803;28;20042;-81
2021/10/25 09:55:48;;;;;;;2.28;2.00;;;;;;;26.30;23.34;94626.34;4959134;28;20026;-81
2021/10/25 09:58:20;;;;;;;2.97;2.22;;;;;;;26.28;23.51;94627.72;4951140;28;20023;-80
2021/10/25 10:00:46;;;;;;;2.38;1.90;;;;;;;26.23;23.45;94635.81;4948680;28;20126;-80
2021/10/25 10:03:13;;;;;;;2.08;1.88;;;;;;;26.23;23.82;94633.91;4961542;28;20110;-80
2021/10/25 10:05:39;;;;;;;2.63;1.90;;;;;;;26.24;23.82;94632.84;4940599;28;20099;-80
2021/10/25 10:08:05;;;;;;;2.10;1.90;;;;;;;26.24;23.37;94630.19;4952654;28;20043;-81
2021/10/25 10:10:33;;;;;;;2.65;2.08;;;;;;;26.24;24.01;94629.41;4950814;28;20030;-81
2021/10/25 10:12:58;;;;;;;3.08;2.28;;;;;;;26.26;23.86;94632.56;4937426;28;20031;-81
2021/10/25 10:15:28;;;;;;;3.45;2.72;;;;;;;26.23;23.54;94622.47;4919864;28;20056;-80
2021/10/25 10:18:22;;;;;;;3.83;2.63;;;;;;;26.40;23.23;94641.38;4970741;28;20050;-80
2021/10/25 10:20:53;;;;;;;3.22;2.55;;;;;;;26.31;23.44;94630.63;4951015;28;20039;-80
2021/10/25 10:23:21;;;;;;;2.88;2.20;;;;;;;26.28;23.71;94635.72;4938549;28;20066;-81
2021/10/25 10:25:55;;;;;;;3.05;2.58;;;;;;;26.32;23.46;94631.41;4951017;28;20035;-81
2021/10/25 10:28:40;;;;;;;3.00;2.45;;;;;;;26.41;23.49;94635.00;4934352;28;20045;-81
2021/10/25 10:31:11;;;;;;;3.55;2.95;;;;;;;26.41;23.62;94639.53;4949905;28;20042;-81
2021/10/25 10:33:43;;;;;;;3.45;2.83;;;;;;;26.31;23.89;94630.63;4939247;28;20027;-81
2021/10/25 10:36:21;;;;;;;3.03;2.53;;;;;;;26.41;23.41;94643.00;4969922;28;20041;-81
2021/10/25 10:39:01;;;;;;;3.38;2.83;;;;;;;26.38;23.46;94632.09;4950396;28;20098;-81
2021/10/25 10:41:38;;;;;;;3.55;2.67;;;;;;;26.43;23.64;94632.03;4949240;28;20126;-80
2021/10/25 10:44:16;;;;;;;3.25;2.60;;;;;;;26.43;23.26;94626.69;4936262;28;20041;-80
2021/10/25 10:47:00;;;;;;;3.85;3.20;;;;;;;26.41;23.65;94621.66;4952156;28;20035;-80
2021/10/25 10:49:30;;;;;;;3.15;2.60;;;;;;;26.34;27.24;94622.00;4952033;28;20035;-81
2021/10/25 10:52:26;;;;;;;3.35;2.13;;;;;;;26.46;24.52;94632.22;4939164;28;20034;-80
2021/10/25 11:00:31;;;;;;;2.47;2.00;;;;;;;26.45;25.00;94616.53;4954013;28;20086;-80
2021/10/25 11:03:20;;;;;;;2.47;2.00;;;;;;;26.43;25.39;94622.16;4966371;28;20027;-80
2021/10/25 11:05:46;;;;;;;3.70;1.90;;;;;;;26.39;25.51;94612.34;4947601;28;20043;-80
2021/10/25 11:08:16;;;;;;;2.67;2.10;;;;;;;26.44;25.19;94605.06;4960420;28;20035;-80
2021/10/25 11:10:45;;;;;;;2.10;1.90;;;;;;;26.36;24.87;94605.72;4947781;28;20026;-80
2021/10/25 11:13:18;;;;;;;2.80;2.20;;;;;;;26.43;24.63;94595.50;4952018;28;20035;-80
2021/10/25 11:16:06;;;;;;;2.50;2.10;;;;;;;26.46;24.80;94602.88;4946849;28;20031;-80
2021/10/25 11:18:33;;;;;;;2.72;1.90;;;;;;;26.37;24.99;94599.34;4953085;28;20033;-80
2021/10/25 11:21:13;;;;;;;2.33;1.88;;;;;;;26.45;24.27;94593.31;4931924;28;20022;-80
2021/10/25 11:23:40;;;;;;;2.63;2.03;;;;;;;26.34;24.91;94592.69;4952442;28;20037;-80
2021/10/25 11:26:28;;;;;;;2.10;1.60;;;;;;;26.45;24.21;94592.53;4921690;28;20043;-80
2021/10/25 11:29:01;;;;;;;4.35;2.20;;;;;;;26.46;24.44;94588.78;4956535;28;20038;-80
2021/10/25 11:31:26;;;;;;;2.15;1.90;;;;;;;26.37;24.79;94585.19;4955267;28;20415;-80
2021/10/25 11:33:52;;;;;;;2.13;1.88;;;;;;;26.35;24.53;94585.50;4962073;28;20034;-80
2021/10/25 11:36:24;;;;;;;2.45;1.77;;;;;;;26.33;24.73;94574.31;4939687;28;20096;-80
2021/10/25 11:38:50;;;;;;;2.58;1.85;;;;;;;26.32;24.57;94572.75;4952560;28;20019;-80
2021/10/25 11:41:15;;;;;;;2.10;1.70;;;;;;;26.32;24.35;94572.75;4955461;28;20054;-80
2021/10/25 11:43:41;;;;;;;3.88;1.70;;;;;;;26.33;24.35;94576.97;4935565;28;20059;-79
2021/10/25 11:46:14;;;;;;;1.88;1.63;;;;;;;26.38;24.03;94573.44;4943799;28;20046;-79
2021/10/25 11:48:39;;;;;;;1.73;1.55;;;;;;;26.33;24.75;94576.97;4952482;28;20077;-80
2021/10/25 11:51:07;;;;;;;1.90;1.60;;;;;;;26.29;24.74;94570.66;4955746;28;20065;-80
2021/10/25 11:53:33;;;;;;;2.78;1.60;;;;;;;26.31;24.43;94571.16;4949370;28;20035;-80
2021/10/25 11:56:01;;;;;;;1.85;1.70;;;;;;;26.31;24.93;94571.16;4961313;28;20082;-80
2021/10/25 11:58:29;;;;;;;2.28;1.80;;;;;;;26.36;24.75;94568.41;4950420;28;20031;-80
2021/10/25 12:01:04;;;;;;;2.00;1.80;;;;;;;26.38;24.32;94560.91;4952612;28;20121;-80
2021/10/25 12:03:31;;;;;;;2.20;2.00;;;;;;;26.29;24.53;94557.31;4934032;28;20023;-79
2021/10/25 12:05:57;;;;;;;1.50;1.38;;;;;;;26.28;24.82;94555.75;4926070;28;20027;-80
2021/10/25 12:08:25;;;;;;;2.17;1.85;;;;;;;26.34;24.77;94554.59;4954964;28;20042;-80
2021/10/25 12:10:52;;;;;;;2.03;1.73;;;;;;;26.25;24.89;94551.00;4958792;28;20035;-80
2021/10/25 12:13:18;;;;;;;1.77;1.67;;;;;;;26.26;24.57;94550.72;4952686;28;20041;-80
2021/10/25 12:16:03;;;;;;;1.98;1.73;;;;;;;26.34;24.58;94547.38;4956657;28;20027;-80
2021/10/25 12:18:29;;;;;;;2.38;1.70;;;;;;;26.24;24.63;94549.44;4950404;28;20023;-80
2021/10/25 12:20:54;;;;;;;2.47;1.73;;;;;;;26.26;24.87;94544.59;4952269;28;20052;-80
2021/10/25 12:23:23;;;;;;;2.38;1.65;;;;;;;26.24;24.47;94547.56;4952833;28;20035;-80
2021/10/25 12:26:00;;;;;;;2.00;1.80;;;;;;;26.33;24.37;94537.00;4933597;28;20035;-80
2021/10/25 12:28:26;;;;;;;1.67;1.58;;;;;;;26.23;25.13;94537.97;4952135;28;20063;-80
2021/10/25 12:31:04;;;;;;;2.65;1.70;;;;;;;26.23;24.57;94531.84;4965500;28;20031;-79
2021/10/25 12:33:30;;;;;;;1.77;1.42;;;;;;;26.23;25.10;94532.63;4937177;28;20035;-80
2021/10/25 12:35:55;;;;;;;1.60;1.50;;;;;;;26.21;24.96;94531.34;4948876;28;20039;-80
2021/10/25 12:38:21;;;;;;;2.53;1.50;;;;;;;26.20;24.85;94533.22;4958877;28;20043;-80
2021/10/25 12:40:48;;;;;;;2.33;1.55;;;;;;;26.20;25.03;94530.56;4939496;28;20126;-80
2021/10/25 12:43:14;;;;;;;3.33;1.65;;;;;;;26.20;24.72;94529.75;4968651;28;20094;-80
2021/10/25 12:45:44;;;;;;;1.48;1.35;;;;;;;26.17;24.75;94525.81;4950423;28;20035;-80
2021/10/25 12:48:14;;;;;;;1.38;1.27;;;;;;;26.26;24.60;94528.59;4948233;28;20056;-80
2021/10/25 12:50:41;;;;;;;1.60;1.50;;;;;;;26.20;25.41;94535.91;4968677;28;20062;-80
2021/10/25 12:53:08;;;;;;;1.70;1.48;;;;;;;26.18;24.89;94523.94;4964542;28;20031;-80
2021/10/25 12:55:36;;;;;;;2.20;1.58;;;;;;;26.18;25.10;94532.75;4955141;28;20019;-80
2021/10/25 12:58:09;;;;;;;1.65;1.30;;;;;;;26.23;24.77;94521.97;4958726;28;20027;-80
2021/10/25 13:00:34;;;;;;;2.67;1.85;;;;;;;26.17;24.99;94528.47;4953680;28;20051;-80
2021/10/25 13:03:01;;;;;;;1.60;1.50;;;;;;;26.17;25.26;94522.38;4962910;28;20023;-80
2021/10/25 13:05:31;;;;;;;1.48;1.38;;;;;;;26.17;25.50;94522.38;4937611;28;20032;-80
2021/10/25 13:08:01;;;;;;;1.55;1.40;;;;;;;26.18;25.40;94519.41;4950938;28;20023;-79
2021/10/25 13:10:34;;;;;;;1.85;1.60;;;;;;;26.25;25.14;94519.78;4969553;28;20027;-80
2021/10/25 13:13:00;;;;;;;1.65;1.40;;;;;;;26.17;25.41;94522.38;4958819;28;20039;-80
2021/10/25 13:15:26;;;;;;;1.70;1.50;;;;;;;26.14;25.46;94521.06;4957927;28;20033;-80
2021/10/25 13:17:52;;;;;;;1.92;1.60;;;;;;;26.16;25.58;94526.91;4957561;28;20059;-80
2021/10/25 13:20:20;;;;;;;1.98;1.48;;;;;;;26.13;25.51;94517.59;4960093;28;20106;-80
2021/10/25 13:22:46;;;;;;;1.50;1.40;;;;;;;26.11;25.51;94509.13;4950324;28;20037;-80
2021/10/25 13:25:13;;;;;;;1.55;1.45;;;;;;;26.14;25.50;94513.06;4921481;29;20039;-80